Aviation Digital Data Service (ADDS)

Output produced by METARs form (1555 UTC 23 April 2017)
found at http://www.aviationweather.gov/adds/metars/
 
TAF TUPJ 231700Z 2318/2418 11012KT 9999 SCT020 BKN035 
     PROB30 
     TEMPO 2318/2323 SHRA BKN014 BKN034 
     PROB40 
     TEMPO 2400/2418 4000 TSRA FEW012CB BKN014 BKN034